Time;durP1;ratioP1;P1;durP2;ratioP2;P2;SDS_P1;SDS_P2;PMS_P1;PMS_P2;Temp;Humidity;BMP_temperature;BMP_pressure;BME280_temperature;BME280_humidity;BME280_pressure;Samples;Min_cycle;Max_cycle;Signal;HPM_P1;HPM_P2
2021/11/13 00:00:28;;;;;;;;;63.00;49.25;;;;;8.97;69.89;101603.69;146616;592;45016;-68
2021/11/13 00:03:02;;;;;;;;;63.75;50.00;;;;;8.93;69.12;101614.56;146613;708;45914;-68
2021/11/13 00:05:36;;;;;;;;;61.75;47.25;;;;;8.91;69.01;101608.41;146613;587;45034;-69
2021/11/13 00:08:10;;;;;;;;;57.75;44.50;;;;;8.92;69.20;101612.78;146612;565;45021;-69
2021/11/13 00:10:47;;;;;;;;;53.50;41.25;;;;;8.90;69.76;101610.88;146610;587;45021;-71
2021/11/13 00:13:25;;;;;;;;;56.75;44.50;;;;;8.85;69.39;101602.81;146616;594;46012;-72
2021/11/13 00:15:59;;;;;;;;;53.25;44.00;;;;;8.83;69.81;101606.06;146610;625;45017;-72
2021/11/13 00:18:36;;;;;;;;;55.00;45.00;;;;;8.78;69.78;101601.47;146613;660;46020;-72
2021/11/13 00:21:10;;;;;;;;;55.75;44.50;;;;;8.78;69.93;101606.63;146611;563;46016;-72
2021/11/13 00:23:45;;;;;;;;;54.75;44.00;;;;;8.81;69.94;101610.22;146613;569;45014;-72
2021/11/13 00:26:19;;;;;;;;;57.25;44.25;;;;;8.81;69.28;101611.09;146612;603;45016;-73
2021/11/13 00:28:53;;;;;;;;;57.25;44.50;;;;;8.83;69.19;101614.72;146619;677;45014;-73
2021/11/13 00:31:27;;;;;;;;;51.75;41.25;;;;;8.83;68.98;101606.97;146613;627;45017;-71
2021/11/13 00:34:01;;;;;;;;;53.75;40.75;;;;;8.83;68.48;101612.13;146616;585;46010;-69
2021/11/13 00:36:35;;;;;;;;;50.75;40.00;;;;;8.83;68.80;101616.41;146614;586;46012;-70
2021/11/13 00:39:09;;;;;;;;;52.00;42.50;;;;;8.78;69.12;101614.41;146618;648;45014;-72
2021/11/13 00:41:44;;;;;;;;;48.25;38.00;;;;;8.72;68.85;101616.53;146615;686;45014;-72
2021/11/13 00:44:19;;;;;;;;;46.25;38.50;;;;;8.68;68.87;101621.34;146614;566;45020;-71
2021/11/13 00:46:53;;;;;;;;;53.75;42.00;;;;;8.64;69.26;101611.59;146614;638;45048;-71
2021/11/13 00:49:27;;;;;;;;;48.00;39.25;;;;;8.57;69.14;101615.41;146616;560;45031;-73
2021/11/13 00:52:01;;;;;;;;;47.50;37.00;;;;;8.54;69.10;101617.78;146616;585;46013;-74
2021/11/13 00:54:35;;;;;;;;;49.75;41.00;;;;;8.51;69.20;101617.56;146614;613;45020;-72
2021/11/13 00:57:10;;;;;;;;;45.00;37.25;;;;;8.47;69.43;101618.09;146610;573;45020;-71
2021/11/13 00:59:45;;;;;;;;;43.25;37.75;;;;;8.43;69.65;101621.25;146611;611;46021;-71
2021/11/13 01:02:19;;;;;;;;;50.25;39.75;;;;;8.40;69.42;101624.50;146610;593;46012;-70
2021/11/13 01:04:53;;;;;;;;;47.25;38.00;;;;;8.41;69.28;101628.91;146611;620;45020;-72
2021/11/13 01:07:27;;;;;;;;;44.50;37.00;;;;;8.38;69.57;101623.50;146609;625;46020;-71
2021/11/13 01:10:00;;;;;;;;;51.00;39.50;;;;;8.30;70.04;101625.47;146610;714;46020;-71
2021/11/13 01:12:35;;;;;;;;;47.25;37.75;;;;;8.25;71.14;101629.38;146613;578;45049;-71
2021/11/13 01:15:11;;;;;;;;;42.75;36.00;;;;;8.23;70.06;101630.97;146615;607;46020;-71
2021/11/13 01:17:45;;;;;;;;;39.50;35.25;;;;;8.22;70.23;101633.41;146613;722;46012;-71
2021/11/13 01:20:21;;;;;;;;;43.00;35.25;;;;;8.21;70.92;101635.09;146614;593;45020;-70
2021/11/13 01:22:55;;;;;;;;;36.00;32.00;;;;;8.20;71.00;101627.25;146615;611;45017;-70
2021/11/13 01:25:30;;;;;;;;;48.75;38.00;;;;;8.19;71.09;101628.03;146614;593;46020;-72
2021/11/13 01:28:04;;;;;;;;;32.25;31.50;;;;;8.18;71.49;101626.22;146612;592;45016;-71
2021/11/13 01:30:38;;;;;;;;;37.75;33.00;;;;;8.14;71.06;101619.94;146613;729;45021;-71
2021/11/13 01:33:12;;;;;;;;;44.00;34.75;;;;;8.12;71.22;101625.78;146612;621;45038;-72
2021/11/13 01:35:47;;;;;;;;;39.25;33.00;;;;;8.13;71.58;101612.06;146614;684;45020;-73
2021/11/13 01:38:22;;;;;;;;;35.25;32.25;;;;;8.12;71.51;101611.16;146613;622;46017;-73
2021/11/13 01:40:56;;;;;;;;;36.75;29.25;;;;;8.10;71.24;101615.34;146608;686;46913;-73
2021/11/13 01:43:30;;;;;;;;;33.00;29.50;;;;;8.11;72.04;101614.53;146609;652;45020;-73
2021/11/13 01:46:09;;;;;;;;;35.25;31.75;;;;;8.13;71.91;101607.81;146613;591;45020;-70
2021/11/13 01:48:53;;;;;;;;;27.00;25.50;;;;;8.13;72.08;101606.87;146611;664;46016;-70
2021/11/13 01:51:33;;;;;;;;;34.00;28.50;;;;;8.12;71.38;101605.09;146613;669;46010;-69
2021/11/13 01:54:09;;;;;;;;;32.75;30.75;;;;;8.09;71.76;101604.06;146615;657;45016;-69
2021/11/13 01:56:53;;;;;;;;;36.50;31.50;;;;;8.08;71.24;101603.97;146613;594;46020;-70
2021/11/13 01:59:27;;;;;;;;;35.50;31.00;;;;;8.07;71.46;101607.34;146614;620;45016;-69
2021/11/13 02:02:05;;;;;;;;;49.25;38.00;;;;;8.03;71.16;101603.63;146612;564;47012;-71
2021/11/13 02:04:39;;;;;;;;;52.50;41.00;;;;;8.05;72.21;101606.34;146612;569;45042;-70
2021/11/13 02:07:13;;;;;;;;;35.75;32.25;;;;;8.04;71.31;101605.44;146613;583;45021;-70
2021/11/13 02:09:47;;;;;;;;;30.00;28.50;;;;;8.05;71.45;101598.59;146613;605;45021;-72
2021/11/13 02:12:21;;;;;;;;;45.75;38.00;;;;;8.05;71.23;101594.31;146615;615;45020;-71
2021/11/13 02:14:55;;;;;;;;;63.75;48.25;;;;;8.08;70.92;101601.41;146610;571;46013;-74
2021/11/13 02:17:29;;;;;;;;;49.25;36.25;;;;;8.07;71.07;101600.50;146613;606;45020;-70
2021/11/13 02:20:32;;;;;;;;;35.50;32.25;;;;;8.11;70.68;101593.88;146611;571;46016;-71
2021/11/13 02:23:15;;;;;;;;;31.75;26.75;;;;;8.12;70.83;101594.78;146613;602;46021;-69
2021/11/13 02:25:52;;;;;;;;;46.25;38.25;;;;;8.10;71.75;101597.25;146612;583;46020;-69
2021/11/13 02:28:29;;;;;;;;;37.75;32.00;;;;;8.06;71.25;101597.78;146613;788;46021;-69
2021/11/13 02:31:03;;;;;;;;;28.50;26.75;;;;;8.07;72.37;101599.59;146611;569;45021;-69
2021/11/13 02:33:37;;;;;;;;;34.75;29.75;;;;;8.04;72.81;101607.13;146612;589;46010;-70
2021/11/13 02:36:13;;;;;;;;;28.50;24.75;;;;;8.06;71.93;101610.69;146612;634;45020;-70
2021/11/13 02:38:47;;;;;;;;;36.25;30.00;;;;;8.06;72.22;101613.28;146616;571;45020;-71
2021/11/13 02:41:22;;;;;;;;;32.50;29.75;;;;;8.06;72.16;101605.53;146610;575;46016;-71
2021/11/13 02:43:57;;;;;;;;;29.00;25.00;;;;;8.05;73.11;101608.91;146613;597;45021;-69
2021/11/13 02:46:33;;;;;;;;;32.75;25.75;;;;;8.06;72.65;101609.00;146608;577;46916;-70
2021/11/13 02:49:07;;;;;;;;;32.00;26.25;;;;;8.08;73.06;101604.88;146613;582;45913;-69
2021/11/13 02:51:41;;;;;;;;;30.25;23.75;;;;;8.13;72.61;101609.47;146609;674;46012;-70
2021/11/13 02:54:15;;;;;;;;;24.75;19.25;;;;;8.15;72.55;101607.91;146610;626;46010;-70
2021/11/13 02:56:49;;;;;;;;;25.50;24.75;;;;;8.14;72.40;101607.03;146611;608;46012;-70
2021/11/13 02:59:23;;;;;;;;;32.25;26.75;;;;;8.19;71.93;101607.34;146614;598;45021;-68
2021/11/13 03:01:57;;;;;;;;;28.25;24.00;;;;;8.20;72.85;101610.06;146612;584;45020;-69
2021/11/13 03:04:31;;;;;;;;;26.25;22.25;;;;;8.19;72.98;101605.66;146617;576;45014;-70
2021/11/13 03:07:07;;;;;;;;;25.25;23.50;;;;;8.21;72.87;101610.97;146608;612;45021;-70
2021/11/13 03:09:40;;;;;;;;;25.25;20.75;;;;;8.21;72.68;101603.22;146614;589;45020;-68
2021/11/13 03:12:14;;;;;;;;;25.50;22.00;;;;;8.23;72.28;101601.66;146610;619;46013;-69
2021/11/13 03:14:49;;;;;;;;;25.75;23.75;;;;;8.25;72.44;101600.94;146614;606;45020;-69
2021/11/13 03:17:23;;;;;;;;;26.50;22.00;;;;;8.28;72.44;101603.75;146609;580;46016;-70
2021/11/13 03:19:57;;;;;;;;;31.75;21.00;;;;;8.27;71.99;101601.09;146611;581;46021;-70
2021/11/13 03:22:31;;;;;;;;;21.00;18.25;;;;;8.27;71.94;101601.97;146611;715;45021;-70
2021/11/13 03:25:05;;;;;;;;;17.25;16.25;;;;;8.28;71.69;101601.19;146612;585;45020;-71
2021/11/13 03:27:42;;;;;;;;;22.25;20.00;;;;;8.29;72.41;101607.28;146613;581;46012;-76
2021/11/13 03:30:17;;;;;;;;;22.50;20.50;;;;;8.26;73.00;101610.53;146611;727;46010;-74
2021/11/13 03:32:52;;;;;;;;;19.25;18.50;;;;;7.17;72.38;101425.91;146613;604;46012;-73
2021/11/13 03:35:27;;;;;;;;;23.25;20.75;;;;;8.15;73.04;101611.41;146615;583;45021;-73
2021/11/13 03:38:06;;;;;;;;;21.00;20.00;;;;;8.11;72.22;101609.37;146611;789;46016;-73
2021/11/13 03:40:42;;;;;;;;;17.00;16.25;;;;;8.10;72.12;101605.00;146616;585;45019;-72
2021/11/13 03:43:17;;;;;;;;;20.00;16.50;;;;;8.10;71.59;101610.16;146612;594;46017;-73
2021/11/13 03:45:53;;;;;;;;;18.50;18.50;;;;;8.14;71.11;101600.97;146617;570;45020;-71
2021/11/13 03:48:27;;;;;;;;;20.50;20.00;;;;;8.12;70.92;101603.41;146613;597;45017;-72
2021/11/13 03:51:01;;;;;;;;;18.00;16.75;;;;;8.08;70.57;101609.16;146616;591;45020;-72
2021/11/13 03:53:36;;;;;;;;;23.50;21.50;;;;;8.06;70.73;101611.59;146611;613;45016;-72
2021/11/13 03:56:10;;;;;;;;;26.75;23.25;;;;;8.01;70.46;101612.06;146615;586;45020;-73
2021/11/13 03:58:43;;;;;;;;;27.25;23.25;;;;;7.96;70.55;101610.81;146612;585;45044;-73
2021/11/13 04:01:17;;;;;;;;;27.50;24.50;;;;;7.91;71.25;101625.94;146613;599;45020;-72
2021/11/13 04:03:51;;;;;;;;;26.50;22.00;;;;;7.83;71.08;101619.31;146612;588;46016;-72
2021/11/13 04:06:25;;;;;;;;;30.00;23.25;;;;;7.74;72.23;101622.06;146614;582;46021;-72
2021/11/13 04:09:00;;;;;;;;;31.75;28.00;;;;;7.66;71.54;101623.16;146609;643;45020;-72
2021/11/13 04:11:34;;;;;;;;;28.00;26.00;;;;;7.62;72.01;101621.13;146613;582;45021;-71
2021/11/13 04:14:08;;;;;;;;;30.25;25.50;;;;;7.59;71.62;101626.06;146612;564;46012;-74
2021/11/13 04:16:42;;;;;;;;;19.00;17.50;;;;;7.54;71.93;101617.97;146615;573;45030;-70
2021/11/13 04:19:16;;;;;;;;;23.25;21.00;;;;;7.47;71.79;101614.78;146608;646;45020;-71
2021/11/13 04:21:50;;;;;;;;;23.75;20.25;;;;;7.42;72.01;101616.13;146614;586;45020;-69
2021/11/13 04:24:24;;;;;;;;;24.25;20.75;;;;;7.42;72.44;101622.16;146612;569;45016;-71
2021/11/13 04:26:58;;;;;;;;;29.50;24.50;;;;;7.42;72.24;101617.00;146613;569;46021;-70
2021/11/13 04:29:32;;;;;;;;;24.00;21.75;;;;;7.44;72.40;101618.00;146611;579;45020;-71
2021/11/13 04:32:06;;;;;;;;;24.75;21.50;;;;;7.45;71.92;101624.09;146615;577;45020;-72
2021/11/13 04:37:41;;;;;;;;;21.75;21.25;;;;;7.49;72.92;101628.72;146614;573;46020;-71
2021/11/13 04:40:15;;;;;;;;;22.50;21.25;;;;;7.48;72.79;101630.41;146610;580;46016;-71
2021/11/13 04:42:49;;;;;;;;;28.25;21.25;;;;;7.45;71.44;101624.09;146611;656;46021;-70
2021/11/13 04:45:24;;;;;;;;;24.75;20.00;;;;;7.38;71.76;101623.63;146611;586;45020;-73
2021/11/13 04:47:58;;;;;;;;;20.00;17.75;;;;;7.38;72.25;101628.78;146612;621;45020;-73
2021/11/13 04:50:33;;;;;;;;;20.50;20.50;;;;;7.36;71.98;101638.06;146612;569;46012;-74
2021/11/13 04:53:08;;;;;;;;;24.75;20.50;;;;;7.34;71.47;101646.47;146612;583;45020;-74
2021/11/13 04:55:44;;;;;;;;;24.75;20.75;;;;;7.34;72.11;101654.19;146611;595;46016;-75
2021/11/13 04:58:18;;;;;;;;;21.75;20.00;;;;;7.30;72.03;101647.91;146613;610;46020;-73
2021/11/13 05:00:53;;;;;;;;;22.50;18.50;;;;;7.25;71.30;101651.78;146612;593;46016;-73
2021/11/13 05:03:26;;;;;;;;;23.75;20.50;;;;;7.20;72.08;101654.81;146612;599;46020;-74
2021/11/13 05:06:01;;;;;;;;;24.75;22.50;;;;;7.17;71.56;101652.88;146611;571;46016;-73
2021/11/13 05:08:35;;;;;;;;;24.25;20.25;;;;;7.15;72.00;101660.47;146614;618;45050;-73
2021/11/13 05:11:09;;;;;;;;;22.00;19.50;;;;;7.14;71.83;101665.53;146611;624;46012;-73
2021/11/13 05:13:43;;;;;;;;;21.50;18.25;;;;;7.11;72.26;101667.87;146616;611;45020;-73
2021/11/13 05:16:17;;;;;;;;;22.00;21.00;;;;;7.06;72.35;101674.31;146613;577;46020;-73
2021/11/13 05:18:51;;;;;;;;;26.75;22.00;;;;;7.03;72.39;101679.22;146614;667;46013;-72
2021/11/13 05:21:25;;;;;;;;;22.50;20.25;;;;;6.88;73.39;101654.00;146609;654;46012;-73
2021/11/13 05:23:59;;;;;;;;;27.25;22.25;;;;;6.94;73.15;101674.22;146615;636;45020;-73
2021/11/13 05:26:33;;;;;;;;;23.25;21.50;;;;;6.92;73.25;101680.97;146610;588;46016;-72
2021/11/13 05:29:07;;;;;;;;;23.75;19.75;;;;;6.91;73.32;101673.97;146616;605;45020;-73
2021/11/13 05:31:41;;;;;;;;;22.75;18.50;;;;;6.95;72.45;101681.22;146611;579;46016;-73
2021/11/13 05:34:15;;;;;;;;;23.50;22.25;;;;;6.98;73.68;101676.31;146616;644;45014;-71
2021/11/13 05:36:49;;;;;;;;;28.25;22.50;;;;;7.02;74.08;101675.75;146613;634;45016;-71
2021/11/13 05:39:22;;;;;;;;;25.75;23.25;;;;;7.06;73.71;101682.94;146615;564;45030;-71
2021/11/13 05:41:56;;;;;;;;;23.25;21.00;;;;;7.07;74.04;101674.47;146610;659;46012;-71
2021/11/13 05:44:30;;;;;;;;;25.75;23.50;;;;;7.17;73.82;101683.84;146610;580;46010;-71
2021/11/13 05:47:04;;;;;;;;;26.50;23.50;;;;;7.31;73.88;101680.66;146607;570;45020;-71
2021/11/13 05:49:39;;;;;;;;;26.75;23.50;;;;;7.55;72.71;101686.84;146613;628;46010;-72
2021/11/13 05:52:13;;;;;;;;;23.50;21.50;;;;;7.86;72.70;101690.16;146614;582;45027;-71
2021/11/13 05:54:47;;;;;;;;;25.00;22.75;;;;;8.45;72.21;101692.94;146617;575;45015;-73
2021/11/13 05:57:21;;;;;;;;;29.25;26.25;;;;;9.23;71.17;101696.09;146605;609;47915;-73
2021/11/13 05:59:55;;;;;;;;;27.25;23.00;;;;;10.17;68.77;101688.00;146611;565;46010;-76
2021/11/13 06:02:33;;;;;;;;;31.75;23.50;;;;;11.05;66.77;101697.31;146607;584;46020;-76
2021/11/13 06:05:07;;;;;;;;;28.00;24.25;;;;;11.78;64.42;101703.69;146612;587;45020;-76
2021/11/13 06:07:41;;;;;;;;;32.75;29.00;;;;;12.39;62.91;101703.03;146607;609;45020;-76
2021/11/13 06:10:18;;;;;;;;;26.00;24.50;;;;;12.95;61.72;101698.53;146610;574;46010;-71
2021/11/13 06:12:52;;;;;;;;;28.00;27.75;;;;;13.50;60.44;101703.38;146608;570;46012;-71
2021/11/13 06:15:26;;;;;;;;;33.25;26.25;;;;;13.97;59.64;101706.75;146607;639;46010;-70
2021/11/13 06:18:00;;;;;;;;;29.50;28.00;;;;;14.42;58.95;101699.50;146606;579;45020;-70
2021/11/13 06:20:34;;;;;;;;;30.50;27.50;;;;;14.91;57.25;101705.50;146610;569;45020;-72
2021/11/13 06:23:09;;;;;;;;;37.00;30.75;;;;;15.34;56.06;101704.09;146609;609;45016;-74
2021/11/13 06:25:43;;;;;;;;;42.50;36.75;;;;;15.64;54.77;101709.88;146608;576;46020;-75
2021/11/13 06:28:17;;;;;;;;;37.50;32.50;;;;;15.77;54.42;101707.03;146605;710;46016;-75
2021/11/13 06:30:51;;;;;;;;;37.00;32.00;;;;;15.93;54.90;101700.75;146611;591;45020;-74
2021/11/13 06:33:25;;;;;;;;;33.75;29.00;;;;;16.16;54.17;101700.06;146607;596;46016;-77
2021/11/13 06:35:59;;;;;;;;;45.00;34.00;;;;;16.36;52.43;101703.56;146607;772;46010;-72
2021/11/13 06:38:33;;;;;;;;;37.75;31.50;;;;;16.31;51.71;101698.94;146606;723;46016;-72
2021/11/13 06:41:07;;;;;;;;;38.75;33.00;;;;;16.12;52.74;101698.13;146611;623;45021;-72
2021/11/13 06:43:41;;;;;;;;;42.00;33.00;;;;;15.98;52.83;101700.97;146608;684;46016;-72
2021/11/13 06:46:15;;;;;;;;;41.00;32.25;;;;;15.91;53.36;101702.41;146613;570;45029;-72
2021/11/13 06:48:49;;;;;;;;;42.00;34.25;;;;;15.91;53.49;101707.63;146606;604;46021;-70
2021/11/13 06:51:25;;;;;;;;;41.75;32.75;;;;;15.89;53.39;101709.31;146607;579;45020;-70
2021/11/13 06:53:59;;;;;;;;;41.00;33.75;;;;;15.85;53.29;101707.34;146606;649;45024;-70
2021/11/13 06:56:40;;;;;;;;;45.50;35.25;;;;;15.75;53.47;101711.28;146610;623;46012;-72
2021/11/13 06:59:14;;;;;;;;;47.25;35.75;;;;;15.73;53.93;101712.91;146607;594;45020;-71
2021/11/13 07:01:48;;;;;;;;;45.75;37.00;;;;;15.82;53.30;101709.84;146612;564;45020;-71
2021/11/13 07:04:22;;;;;;;;;39.75;35.00;;;;;15.89;53.56;101711.94;146609;630;46012;-71
2021/11/13 07:06:56;;;;;;;;;49.00;39.25;;;;;15.97;53.24;101707.03;146609;600;45020;-72
2021/11/13 07:09:30;;;;;;;;;53.50;41.00;;;;;15.98;53.74;101704.50;146606;599;45020;-73
2021/11/13 07:12:04;;;;;;;;;50.50;42.00;;;;;16.03;53.71;101705.56;146613;588;45014;-73
2021/11/13 07:14:38;;;;;;;;;31.00;27.25;;;;;16.03;56.86;101708.19;146608;573;45020;-74
2021/11/13 07:17:12;;;;;;;;;35.75;31.25;;;;;16.10;57.49;101720.72;146611;605;45021;-74
2021/11/13 07:19:46;;;;;;;;;40.75;32.50;;;;;16.19;54.95;101715.00;146607;577;46016;-74
2021/11/13 07:22:21;;;;;;;;;45.50;37.50;;;;;16.32;57.68;101719.97;146608;604;45020;-75
2021/11/13 07:24:55;;;;;;;;;46.75;36.00;;;;;16.45;56.25;101718.78;146606;640;46016;-75
2021/11/13 07:27:29;;;;;;;;;46.50;37.00;;;;;16.54;55.17;101721.78;146608;607;46010;-75
2021/11/13 07:30:04;;;;;;;;;49.25;39.75;;;;;16.66;56.24;101716.16;146608;602;45017;-76
2021/11/13 07:32:38;;;;;;;;;49.50;39.75;;;;;16.75;55.55;101713.03;146609;598;46021;-73
2021/11/13 07:35:14;;;;;;;;;51.75;40.50;;;;;16.80;54.66;101719.41;146608;611;45047;-75
2021/11/13 07:37:47;;;;;;;;;48.75;40.75;;;;;16.79;54.07;101720.22;146611;566;45021;-76
2021/11/13 07:40:21;;;;;;;;;58.50;44.50;;;;;16.76;53.17;101721.00;146606;630;46017;-74
2021/11/13 07:42:55;;;;;;;;;53.00;41.75;;;;;16.79;54.35;101723.75;146610;565;45020;-75
2021/11/13 07:45:29;;;;;;;;;50.00;42.00;;;;;16.91;54.43;101717.22;146606;607;46012;-75
2021/11/13 07:48:04;;;;;;;;;57.75;43.50;;;;;16.98;52.07;101721.91;146608;621;46020;-75
2021/11/13 07:50:41;;;;;;;;;49.75;42.00;;;;;17.02;54.20;101729.94;146611;571;45027;-75
2021/11/13 07:53:15;;;;;;;;;52.25;41.50;;;;;17.18;53.70;101727.94;146609;605;46010;-75
2021/11/13 07:55:50;;;;;;;;;56.75;44.75;;;;;17.31;53.29;101723.22;146610;633;45016;-75
2021/11/13 07:58:24;;;;;;;;;52.50;42.00;;;;;17.41;52.31;101719.22;146610;653;45020;-75
2021/11/13 08:00:58;;;;;;;;;22.00;22.00;;;;;17.52;53.77;101717.06;146608;577;46012;-75
2021/11/13 08:03:32;;;;;;;;;57.00;43.25;;;;;17.61;53.50;101722.66;146609;563;45050;-75
2021/11/13 08:06:06;;;;;;;;;50.50;38.75;;;;;17.75;53.51;101720.53;146609;564;46012;-75
2021/11/13 08:08:40;;;;;;;;;50.75;40.75;;;;;17.89;53.16;101714.13;146612;643;45031;-75
2021/11/13 08:11:13;;;;;;;;;47.25;38.00;;;;;17.99;53.06;101713.62;146610;585;45016;-75
2021/11/13 08:13:47;;;;;;;;;53.25;41.50;;;;;18.10;52.67;101713.09;146610;565;45021;-75
2021/11/13 08:16:21;;;;;;;;;48.25;37.50;;;;;18.18;53.02;101711.66;146608;597;46017;-75
2021/11/13 08:18:55;;;;;;;;;45.75;39.00;;;;;18.21;52.09;101711.78;146612;582;45020;-75
2021/11/13 08:21:29;;;;;;;;;53.00;42.75;;;;;18.18;51.27;101709.94;146610;592;45016;-79
2021/11/13 08:24:03;;;;;;;;;50.75;40.75;;;;;18.14;51.61;101708.03;146609;623;46021;-80
2021/11/13 08:26:38;;;;;;;;;49.75;39.50;;;;;18.18;52.58;101709.94;146613;584;45016;-80
2021/11/13 08:29:12;;;;;;;;;50.50;41.00;;;;;18.21;51.41;101711.78;146610;682;46020;-81
2021/11/13 08:31:47;;;;;;;;;53.00;42.25;;;;;18.15;52.08;101711.56;146606;613;46016;-81
2021/11/13 08:34:22;;;;;;;;;47.50;39.75;;;;;18.09;51.93;101709.59;146611;577;46010;-81
2021/11/13 08:36:56;;;;;;;;;39.50;34.00;;;;;18.06;51.74;101719.09;146610;609;46012;-81
2021/11/13 08:39:34;;;;;;;;;44.00;36.50;;;;;18.06;52.19;101717.34;146611;573;46010;-81
2021/11/13 08:42:14;;;;;;;;;36.25;32.00;;;;;18.08;52.50;101710.44;146608;602;45035;-80
2021/11/13 08:44:51;;;;;;;;;41.00;33.25;;;;;18.14;51.84;101722.91;146610;564;46020;-81
2021/11/13 08:47:25;;;;;;;;;38.25;32.75;;;;;18.22;51.94;101713.56;146605;630;45021;-81
2021/11/13 08:49:59;;;;;;;;;42.75;32.75;;;;;18.27;52.13;101709.38;146612;601;45023;-81
2021/11/13 08:52:33;;;;;;;;;38.75;33.25;;;;;18.31;52.61;101716.50;146606;567;46016;-81
2021/11/13 08:55:08;;;;;;;;;36.00;29.50;;;;;18.35;52.64;101720.12;146609;593;45020;-82
2021/11/13 08:57:44;;;;;;;;;45.25;37.50;;;;;18.41;51.92;101709.84;146609;665;45031;-81
2021/11/13 09:00:27;;;;;;;;;46.50;36.25;;;;;18.43;51.97;101706.44;146611;608;46011;-83
2021/11/13 09:03:03;;;;;;;;;43.00;35.00;;;;;18.45;52.31;101701.25;146610;578;45016;-81
2021/11/13 09:05:37;;;;;;;;;43.00;36.00;;;;;18.49;51.88;101702.25;146610;588;45020;-80
2021/11/13 09:08:11;;;;;;;;;47.25;38.50;;;;;18.46;51.34;101698.66;146608;642;45017;-82
2021/11/13 09:10:46;;;;;;;;;69.75;52.25;;;;;18.44;52.21;101694.19;146609;629;46020;-82
2021/11/13 09:13:22;;;;;;;;;48.75;39.25;;;;;18.48;52.14;101693.47;146610;637;45016;-81
2021/11/13 09:15:59;;;;;;;;;48.25;38.25;;;;;18.51;53.08;101685.72;146609;590;46014;-82
2021/11/13 09:18:35;;;;;;;;;42.25;34.75;;;;;18.55;52.26;101684.06;146607;599;46915;-81
2021/11/13 09:21:10;;;;;;;;;50.75;40.50;;;;;18.63;51.06;101675.62;146612;718;45020;-82
2021/11/13 09:23:45;;;;;;;;;44.75;37.50;;;;;18.69;52.04;101673.19;146608;600;45017;-82
2021/11/13 09:26:19;;;;;;;;;47.75;37.75;;;;;18.82;51.92;101676.25;146611;632;45020;-80
2021/11/13 09:28:56;;;;;;;;;42.00;35.75;;;;;18.87;50.80;101667.66;146606;667;45020;-82
2021/11/13 09:31:30;;;;;;;;;43.50;35.25;;;;;18.79;51.22;101666.53;146611;580;45020;-81
2021/11/13 09:34:04;;;;;;;;;48.50;37.00;;;;;18.69;51.36;101669.66;146609;618;46012;-82
2021/11/13 09:36:38;;;;;;;;;36.75;34.00;;;;;18.60;52.60;101659.75;146611;596;45020;-83
2021/11/13 09:39:12;;;;;;;;;42.50;35.25;;;;;18.66;51.69;101654.69;146606;564;46016;-81
2021/11/13 09:41:47;;;;;;;;;33.25;30.50;;;;;18.79;51.29;101655.16;146609;683;46020;-81
2021/11/13 09:44:21;;;;;;;;;31.25;28.75;;;;;18.87;51.83;101657.16;146608;577;45916;-81
2021/11/13 09:46:58;;;;;;;;;33.75;28.25;;;;;18.99;52.09;101642.63;146612;595;45020;-81
2021/11/13 09:49:34;;;;;;;;;34.75;30.50;;;;;19.18;52.56;101649.34;146607;584;45915;-82
2021/11/13 09:52:09;;;;;;;;;46.50;38.50;;;;;19.40;51.53;101649.16;146610;576;46011;-82
2021/11/13 09:54:45;;;;;;;;;35.00;32.00;;;;;19.65;50.38;101649.91;146611;583;45016;-81
2021/11/13 09:57:19;;;;;;;;;43.75;36.00;;;;;19.83;50.91;101646.06;146609;611;46020;-81
2021/11/13 09:59:54;;;;;;;;;43.50;37.00;;;;;19.82;49.00;101615.31;146607;609;46020;-83
2021/11/13 10:02:27;;;;;;;;;42.75;36.75;;;;;20.00;49.39;101635.09;146612;683;46010;-80
2021/11/13 10:05:01;;;;;;;;;33.75;31.25;;;;;20.00;49.38;101627.19;146609;706;45016;-80
2021/11/13 10:07:36;;;;;;;;;31.00;27.75;;;;;19.96;49.14;101633.22;146611;686;46008;-79
2021/11/13 10:10:12;;;;;;;;;19.25;17.75;;;;;19.93;48.64;101630.50;146611;593;45032;-81
2021/11/13 10:12:48;;;;;;;;;18.00;17.00;;;;;19.87;49.33;101627.72;146608;569;46020;-80
2021/11/13 10:15:37;;;;;;;;;17.00;16.25;;;;;19.86;50.29;101620.69;146608;645;45018;-80
2021/11/13 10:18:21;;;;;;;;;22.75;20.00;;;;;19.98;49.35;101614.00;146611;569;45020;-79
2021/11/13 10:21:26;;;;;;;;;28.50;24.00;;;;;19.98;49.01;101582.41;146606;569;46017;-74
2021/11/13 10:24:07;;;;;;;;;26.25;20.75;;;;;20.06;48.69;101586.16;146608;578;46010;-84
2021/11/13 10:26:50;;;;;;;;;11.25;10.00;;;;;20.22;49.19;101605.88;146606;579;46016;-72
2021/11/13 10:29:38;;;;;;;;;23.75;21.50;;;;;20.17;48.39;101602.22;146610;571;46010;-80
2021/11/13 10:32:15;;;;;;;;;11.00;10.00;;;;;20.17;48.63;101593.44;146607;583;45018;-82
2021/11/13 10:34:54;;;;;;;;;13.50;12.25;;;;;20.20;48.70;101597.03;146610;694;45020;-80
2021/11/13 10:37:31;;;;;;;;;10.67;10.67;;;;;20.22;47.73;101589.19;146604;579;46916;-79
2021/11/13 10:40:08;;;;;;;;;13.25;13.25;;;;;20.24;47.67;101590.97;146609;688;46010;-80
2021/11/13 10:42:42;;;;;;;;;10.00;10.00;;;;;20.15;47.50;101593.37;146607;656;46017;-80
2021/11/13 10:45:16;;;;;;;;;11.25;11.00;;;;;20.08;47.92;101591.44;146607;671;46020;-79
2021/11/13 10:47:53;;;;;;;;;13.50;13.25;;;;;20.12;47.82;101584.50;146611;610;45018;-79
2021/11/13 10:50:29;;;;;;;;;15.50;11.50;;;;;20.19;47.42;101578.56;146611;574;45020;-80
2021/11/13 10:53:13;;;;;;;;;15.50;14.50;;;;;20.20;48.24;101577.72;146607;642;46019;-78
2021/11/13 10:55:47;;;;;;;;;13.00;11.75;;;;;20.18;46.58;101567.12;146609;570;45020;-79
2021/11/13 10:58:35;;;;;;;;;13.00;11.75;;;;;20.19;48.84;101565.41;146606;636;46016;-80
2021/11/13 11:01:15;;;;;;;;;15.00;13.75;;;;;20.17;47.80;101565.34;146608;578;45919;-81
2021/11/13 11:03:49;;;;;;;;;15.00;14.00;;;;;20.12;47.44;101559.06;146606;632;45916;-81
2021/11/13 11:06:33;;;;;;;;;14.50;14.50;;;;;20.07;48.80;101568.59;146608;576;46021;-79
2021/11/13 11:09:24;;;;;;;;;17.25;17.00;;;;;20.02;49.65;101552.69;146607;604;45020;-81
2021/11/13 11:12:08;;;;;;;;;15.00;14.75;;;;;20.02;48.54;101551.78;146608;609;46020;-82
2021/11/13 11:14:45;;;;;;;;;17.75;16.75;;;;;19.98;48.03;101557.84;146607;579;45017;-80
2021/11/13 11:17:23;;;;;;;;;17.00;16.50;;;;;19.88;47.76;101555.81;146610;580;45020;-80
2021/11/13 11:20:00;;;;;;;;;16.50;15.50;;;;;19.80;48.34;101551.22;146606;660;45020;-80
2021/11/13 11:22:35;;;;;;;;;17.25;17.00;;;;;19.78;48.10;101547.69;146610;649;45030;-81
2021/11/13 11:25:15;;;;;;;;;17.50;16.75;;;;;19.77;48.40;101547.62;146609;575;45016;-81
2021/11/13 11:27:52;;;;;;;;;19.00;18.00;;;;;19.81;49.16;101538.94;146612;618;45023;-79
2021/11/13 11:30:30;;;;;;;;;23.25;21.00;;;;;19.88;49.04;101534.78;146606;583;46916;-81
2021/11/13 11:33:07;;;;;;;;;21.25;20.00;;;;;19.97;49.08;101537.59;146609;577;45020;-79
2021/11/13 11:35:41;;;;;;;;;15.50;13.50;;;;;19.98;48.16;101537.66;146607;637;45020;-80
2021/11/13 11:38:16;;;;;;;;;17.25;15.75;;;;;19.80;48.31;101502.97;146612;580;45020;-80
2021/11/13 11:40:53;;;;;;;;;16.50;13.25;;;;;19.92;48.19;101526.97;146609;628;45915;-79
2021/11/13 11:43:31;;;;;;;;;19.75;18.50;;;;;19.88;48.79;101521.59;146609;632;46012;-79
2021/11/13 11:46:05;;;;;;;;;22.25;18.00;;;;;19.93;48.98;101520.84;146604;600;46016;-80
2021/11/13 11:48:39;;;;;;;;;21.25;20.25;;;;;20.07;49.20;101515.94;146609;610;46012;-80
2021/11/13 11:51:14;;;;;;;;;16.75;14.75;;;;;20.19;47.45;101525.91;146602;566;47916;-81
2021/11/13 11:53:48;;;;;;;;;15.75;15.00;;;;;20.19;48.86;101518.88;146612;660;45014;-82